Terminal Aerodrome Forecast
Issued by NWS

Home | Current Version | Previous Version | Graphics & Text | Print | Product List | Glossary On
Versions: 1 2 3 4 5 6 7 8 9 10 11 12 13 14 15 16 17 18 19 20 21 22
000
FTUS43 KLOT 242320
TAFGYY
TAF
KGYY 242320Z 2500/2524 21012G18KT P6SM FEW050 SCT250
     FM250100 21008KT P6SM BKN250
     FM251000 20004KT 4SM BR FEW050 BKN250
     FM251500 16010KT P6SM SCT050 BKN200
      TEMPO 2522/2524 4SM TSRA SCT030 OVC040CB=

USA.gov is the U.S. government's official web portal to all federal, state and local government web resources and services.